createdAt,value
2022-07-25T00:00:33.743Z,23.85
2022-07-25T00:03:02.130Z,23.86
2022-07-25T00:05:35.831Z,23.53
2022-07-25T00:08:06.408Z,23.33
2022-07-25T00:10:35.821Z,23.30
2022-07-25T00:13:03.913Z,23.21
2022-07-25T00:15:32.186Z,23.04
2022-07-25T00:18:00.228Z,23.09
2022-07-25T00:20:28.290Z,23.11
2022-07-25T00:22:56.298Z,23.10
2022-07-25T00:25:24.339Z,22.87
2022-07-25T00:27:53.781Z,22.78
2022-07-25T00:30:22.010Z,22.61
2022-07-25T00:32:50.019Z,22.62
2022-07-25T00:35:18.098Z,22.63
2022-07-25T00:37:46.109Z,22.53
2022-07-25T00:40:14.620Z,22.58
2022-07-25T00:42:42.678Z,22.44
2022-07-25T00:45:12.771Z,22.42
2022-07-25T00:47:40.791Z,22.31
2022-07-25T00:50:10.050Z,22.26
2022-07-25T00:52:38.162Z,21.91
2022-07-25T00:55:07.473Z,21.98
2022-07-25T00:57:36.466Z,22.10
2022-07-25T01:00:07.170Z,22.09
2022-07-25T01:02:36.829Z,22.10
2022-07-25T01:05:05.331Z,22.06
2022-07-25T01:07:33.838Z,22.04
2022-07-25T01:10:02.286Z,22.20
2022-07-25T01:12:30.372Z,22.26
2022-07-25T01:14:58.625Z,22.38
2022-07-25T01:17:26.682Z,22.47
2022-07-25T01:19:56.066Z,22.40
2022-07-25T01:22:25.470Z,22.51
2022-07-25T01:24:53.479Z,22.60
2022-07-25T01:27:21.522Z,22.66
2022-07-25T01:29:49.531Z,22.46
2022-07-25T01:32:17.572Z,22.57
2022-07-25T01:34:45.538Z,22.74
2022-07-25T01:37:13.538Z,22.59
2022-07-25T01:39:42.979Z,22.61
2022-07-25T01:42:11.016Z,22.37
2022-07-25T01:44:39.026Z,22.51
2022-07-25T01:47:07.327Z,22.59
2022-07-25T01:49:35.419Z,22.53
2022-07-25T01:52:03.477Z,22.50
2022-07-25T01:54:32.294Z,22.47
2022-07-25T01:57:01.753Z,22.63
2022-07-25T01:59:29.919Z,22.74
2022-07-25T02:01:58.299Z,22.74
2022-07-25T02:04:26.449Z,22.75
2022-07-25T02:06:54.547Z,22.68
2022-07-25T02:09:22.758Z,22.69
2022-07-25T02:11:50.790Z,22.73
2022-07-25T02:14:20.247Z,22.69
2022-07-25T02:16:48.355Z,22.68
2022-07-25T02:19:16.423Z,22.82
2022-07-25T02:21:44.618Z,22.90
2022-07-25T02:24:12.794Z,22.88
2022-07-25T02:26:40.835Z,22.93
2022-07-25T02:29:08.983Z,22.90
2022-07-25T02:31:38.622Z,22.93
2022-07-25T02:34:07.026Z,22.91
2022-07-25T02:36:35.441Z,22.90
2022-07-25T02:39:03.879Z,22.84
2022-07-25T02:41:32.022Z,22.78
2022-07-25T02:44:00.145Z,22.78
2022-07-25T02:46:28.225Z,22.77
2022-07-25T02:48:57.780Z,22.78
2022-07-25T02:51:25.989Z,22.79
2022-07-25T02:53:57.801Z,22.79
2022-07-25T02:56:29.881Z,22.75
2022-07-25T02:58:58.560Z,22.77
2022-07-25T03:01:27.108Z,22.80
2022-07-25T03:03:55.216Z,22.79
2022-07-25T03:06:24.654Z,22.72
2022-07-25T03:08:52.720Z,22.80
2022-07-25T03:11:22.386Z,22.74
2022-07-25T03:13:50.455Z,22.75
2022-07-25T03:16:18.557Z,22.60
2022-07-25T03:18:47.036Z,22.54
2022-07-25T03:21:15.130Z,22.58
2022-07-25T03:23:47.899Z,22.66
2022-07-25T03:26:18.538Z,22.72
2022-07-25T03:28:46.608Z,22.71
2022-07-25T03:31:14.652Z,22.66
2022-07-25T03:33:42.666Z,22.63
2022-07-25T03:36:11.666Z,22.56
2022-07-25T03:38:40.453Z,22.45
2022-07-25T03:41:09.897Z,22.39
2022-07-25T03:43:38.346Z,22.46
2022-07-25T03:46:06.437Z,22.62
2022-07-25T03:48:34.566Z,22.67
2022-07-25T03:51:06.848Z,22.80
2022-07-25T03:53:55.491Z,22.83
2022-07-25T03:56:24.878Z,22.74
2022-07-25T03:58:52.871Z,22.89
2022-07-25T04:01:20.998Z,22.87
2022-07-25T04:03:50.257Z,22.85
2022-07-25T04:06:18.745Z,22.90
2022-07-25T04:08:46.807Z,22.88
2022-07-25T04:11:14.803Z,22.97
2022-07-25T04:13:44.387Z,23.01
2022-07-25T04:16:14.834Z,23.09
2022-07-25T04:18:46.521Z,23.10
2022-07-25T04:21:17.567Z,23.10
2022-07-25T04:23:45.566Z,23.12
2022-07-25T04:26:13.585Z,23.10
2022-07-25T04:28:41.564Z,23.24
2022-07-25T04:31:10.970Z,23.29
2022-07-25T04:33:39.228Z,23.28
2022-07-25T04:36:08.078Z,23.38
2022-07-25T04:38:36.394Z,23.48
2022-07-25T04:41:05.160Z,23.53
2022-07-25T04:43:33.259Z,23.62
2022-07-25T04:46:01.464Z,23.67
2022-07-25T04:48:31.689Z,23.65
2022-07-25T04:50:59.740Z,23.79
2022-07-25T04:53:27.853Z,23.77
2022-07-25T04:55:55.846Z,23.73
2022-07-25T04:58:23.841Z,24.03
2022-07-25T05:00:52.348Z,24.08
2022-07-25T05:03:20.387Z,24.12
2022-07-25T05:05:49.887Z,24.41
2022-07-25T05:08:17.992Z,24.83
2022-07-25T05:10:46.050Z,24.91
2022-07-25T05:13:14.103Z,24.81
2022-07-25T05:15:44.356Z,25.10
2022-07-25T05:18:12.368Z,25.33
2022-07-25T05:20:40.739Z,25.48
2022-07-25T05:23:10.143Z,25.50
2022-07-25T05:25:38.131Z,25.71
2022-07-25T05:28:06.501Z,25.78
2022-07-25T05:30:39.626Z,25.66
2022-07-25T05:33:08.043Z,26.02
2022-07-25T05:35:36.068Z,26.02
2022-07-25T05:38:04.166Z,26.18
2022-07-25T05:40:33.584Z,26.19
2022-07-25T05:43:03.507Z,25.85
2022-07-25T05:45:32.238Z,25.75
2022-07-25T05:48:00.235Z,25.77
2022-07-25T05:50:28.270Z,25.50
2022-07-25T05:52:56.351Z,25.55
2022-07-25T05:55:24.347Z,25.10
2022-07-25T05:57:53.764Z,25.03
2022-07-25T06:00:21.818Z,24.86
2022-07-25T06:02:49.896Z,24.88
2022-07-25T06:05:18.135Z,24.98
2022-07-25T06:07:46.387Z,24.62
2022-07-25T06:10:14.397Z,24.82
2022-07-25T06:12:42.439Z,24.92
2022-07-25T06:15:22.307Z,24.86
2022-07-25T06:17:54.881Z,24.60
2022-07-25T06:20:23.259Z,25.07
2022-07-25T06:22:51.643Z,25.04
2022-07-25T06:25:20.389Z,24.72
2022-07-25T06:27:48.615Z,25.00
2022-07-25T06:30:20.373Z,25.16
2022-07-25T06:32:48.983Z,24.79
2022-07-25T06:35:17.806Z,25.17
2022-07-25T06:37:46.185Z,25.37
2022-07-25T06:40:14.924Z,25.58
2022-07-25T06:42:45.006Z,25.46
2022-07-25T06:45:15.641Z,25.44
2022-07-25T06:47:46.403Z,25.45
2022-07-25T06:50:16.227Z,25.45
2022-07-25T06:52:44.250Z,25.08
2022-07-25T06:55:13.961Z,25.33
2022-07-25T06:57:42.269Z,25.15
2022-07-25T07:00:12.896Z,24.73
2022-07-25T07:02:52.032Z,25.05
2022-07-25T07:05:20.578Z,25.05
2022-07-25T07:07:48.800Z,25.09
2022-07-25T07:10:17.246Z,25.39
2022-07-25T07:12:45.310Z,24.83
2022-07-25T07:15:13.735Z,24.97
2022-07-25T07:17:41.902Z,24.87
2022-07-25T07:20:12.353Z,24.86
2022-07-25T07:22:46.314Z,24.96
2022-07-25T07:25:16.614Z,24.92
2022-07-25T07:27:46.443Z,25.20
2022-07-25T07:30:18.562Z,25.17
2022-07-25T07:32:50.373Z,25.21
2022-07-25T07:35:19.890Z,25.33
2022-07-25T07:37:48.346Z,25.24
2022-07-25T07:40:18.103Z,25.23
2022-07-25T07:42:48.722Z,25.24
2022-07-25T07:45:18.865Z,25.26
2022-07-25T07:47:48.808Z,25.61
2022-07-25T07:50:21.215Z,25.96
2022-07-25T07:52:51.043Z,26.47
2022-07-25T07:55:36.448Z,26.92
2022-07-25T07:58:04.760Z,27.28
2022-07-25T08:00:35.103Z,27.44
2022-07-25T08:03:04.651Z,27.64
2022-07-25T08:05:36.480Z,27.55
2022-07-25T08:08:06.897Z,27.62
2022-07-25T08:10:37.126Z,28.29
2022-07-25T08:13:14.398Z,28.77
2022-07-25T08:15:43.122Z,28.79
2022-07-25T08:18:17.420Z,29.06
2022-07-25T08:20:48.123Z,29.45
2022-07-25T08:23:16.569Z,29.33
2022-07-25T08:25:44.917Z,29.22
2022-07-25T08:28:13.004Z,29.73
2022-07-25T08:30:42.311Z,30.01
2022-07-25T08:33:13.533Z,29.90
2022-07-25T08:35:42.211Z,29.92
2022-07-25T08:38:12.244Z,30.06
2022-07-25T08:40:40.447Z,29.87
2022-07-25T08:43:12.948Z,29.93
2022-07-25T08:45:45.490Z,30.12
2022-07-25T08:48:13.560Z,30.55
2022-07-25T08:50:41.846Z,30.20
2022-07-25T08:53:32.189Z,30.06
2022-07-25T08:55:59.952Z,29.73
2022-07-25T08:58:27.967Z,29.22
2022-07-25T09:00:55.979Z,29.52
2022-07-25T09:03:24.016Z,29.87
2022-07-25T09:05:52.664Z,30.26
2022-07-25T09:08:22.035Z,30.71
2022-07-25T09:10:51.391Z,30.76
2022-07-25T09:13:21.351Z,30.92
2022-07-25T09:15:51.134Z,30.68
2022-07-25T09:18:24.315Z,30.76
2022-07-25T09:20:54.392Z,30.87
2022-07-25T09:23:31.291Z,30.98
2022-07-25T09:26:07.185Z,30.86
2022-07-25T09:28:42.484Z,30.98
2022-07-25T09:31:11.188Z,30.82
2022-07-25T09:33:47.337Z,30.62
2022-07-25T09:36:15.815Z,30.81
2022-07-25T09:38:54.385Z,30.78
2022-07-25T09:41:23.188Z,31.00
2022-07-25T09:43:51.477Z,30.89
2022-07-25T09:46:19.598Z,31.16
2022-07-25T09:48:59.331Z,31.36
2022-07-25T09:51:27.852Z,31.23
2022-07-25T09:53:57.287Z,31.40
2022-07-25T09:56:25.982Z,31.59
2022-07-25T09:58:54.100Z,31.74
2022-07-25T10:01:26.816Z,31.74
2022-07-25T10:04:07.231Z,31.33
2022-07-25T10:06:41.215Z,31.78
2022-07-25T10:09:14.201Z,31.62
2022-07-25T10:11:42.927Z,32.41
2022-07-25T10:14:12.906Z,32.06
2022-07-25T10:16:47.861Z,31.97
2022-07-25T10:19:16.311Z,31.66
2022-07-25T10:21:55.815Z,31.91
2022-07-25T10:24:34.974Z,31.38
2022-07-25T10:27:09.766Z,30.86
2022-07-25T10:29:39.070Z,31.29
2022-07-25T10:32:09.423Z,31.75
2022-07-25T10:34:38.380Z,31.89
2022-07-25T10:37:14.736Z,32.31
2022-07-25T10:39:45.840Z,31.71
2022-07-25T10:42:15.743Z,31.75
2022-07-25T10:44:45.946Z,31.68
2022-07-25T10:47:15.609Z,31.74
2022-07-25T10:50:13.531Z,31.45
2022-07-25T10:52:41.572Z,30.94
2022-07-25T10:55:11.267Z,31.32
2022-07-25T10:57:55.062Z,31.59
2022-07-25T11:00:28.610Z,31.32
2022-07-25T11:02:58.339Z,31.83
2022-07-25T11:05:27.027Z,31.92
2022-07-25T11:08:20.566Z,32.16
2022-07-25T11:11:04.857Z,32.60
2022-07-25T11:13:41.119Z,32.48
2022-07-25T11:16:10.936Z,32.50
2022-07-25T11:18:41.133Z,32.81
2022-07-25T11:21:11.215Z,33.01
2022-07-25T11:23:41.606Z,32.99
2022-07-25T11:26:14.230Z,33.34
2022-07-25T11:28:45.594Z,32.92
2022-07-25T11:31:15.691Z,32.72
2022-07-25T11:33:47.227Z,32.59
2022-07-25T11:36:15.986Z,32.46
2022-07-25T11:38:48.485Z,32.49
2022-07-25T11:41:28.777Z,32.72
2022-07-25T11:43:57.510Z,32.52
2022-07-25T11:46:26.171Z,32.49
2022-07-25T11:49:08.662Z,32.31
2022-07-25T11:51:39.313Z,32.55
2022-07-25T11:54:13.456Z,32.28
2022-07-25T11:56:44.478Z,32.05
2022-07-25T11:59:12.853Z,32.28
2022-07-25T12:01:42.720Z,32.33
2022-07-25T12:04:13.437Z,32.51
2022-07-25T12:06:42.413Z,32.51
2022-07-25T12:09:19.431Z,32.73
2022-07-25T12:11:51.301Z,32.84
2022-07-25T12:14:19.661Z,32.96
2022-07-25T12:16:47.870Z,32.87
2022-07-25T12:19:23.420Z,32.79
2022-07-25T12:21:52.207Z,32.62
2022-07-25T12:24:20.362Z,32.99
2022-07-25T12:26:49.942Z,32.95
2022-07-25T12:29:18.061Z,32.93
2022-07-25T12:31:46.296Z,32.71
2022-07-25T12:34:14.558Z,32.31
2022-07-25T12:36:45.345Z,31.97
2022-07-25T12:39:13.814Z,31.46
2022-07-25T12:41:43.120Z,31.50
2022-07-25T12:44:13.625Z,31.62
2022-07-25T12:46:48.843Z,31.89
2022-07-25T12:49:18.317Z,32.11
2022-07-25T12:51:46.466Z,32.11
2022-07-25T12:54:22.074Z,32.31
2022-07-25T12:56:50.749Z,32.35
2022-07-25T12:59:20.379Z,32.36
2022-07-25T13:01:48.680Z,32.22
2022-07-25T13:04:16.915Z,32.11
2022-07-25T13:06:45.242Z,32.20
2022-07-25T13:09:13.863Z,32.00
2022-07-25T13:11:42.623Z,32.10
2022-07-25T13:14:10.731Z,32.06
2022-07-25T13:16:40.964Z,32.13
2022-07-25T13:19:10.069Z,32.07
2022-07-25T13:21:38.840Z,32.16
2022-07-25T13:24:08.981Z,31.94
2022-07-25T13:26:37.930Z,31.98
2022-07-25T13:29:09.673Z,31.84
2022-07-25T13:31:41.308Z,31.79
2022-07-25T13:34:10.343Z,31.81
2022-07-25T13:36:39.743Z,31.96
2022-07-25T13:39:08.958Z,32.06
2022-07-25T13:41:37.594Z,32.00
2022-07-25T13:44:06.087Z,32.04
2022-07-25T13:46:36.194Z,32.05
2022-07-25T13:49:06.062Z,31.89
2022-07-25T13:51:34.521Z,31.95
2022-07-25T13:54:03.855Z,32.05
2022-07-25T13:56:32.734Z,31.57
2022-07-25T13:59:01.183Z,31.85
2022-07-25T14:01:29.295Z,31.86
2022-07-25T14:03:57.605Z,31.89
2022-07-25T14:06:27.354Z,31.94
2022-07-25T14:08:55.607Z,31.93
2022-07-25T14:11:28.571Z,31.78
2022-07-25T14:13:58.861Z,31.64
2022-07-25T14:16:27.280Z,31.70
2022-07-25T14:18:55.927Z,31.79
2022-07-25T14:21:24.255Z,31.54
2022-07-25T14:23:55.122Z,31.58
2022-07-25T14:26:23.319Z,31.55
2022-07-25T14:28:51.841Z,31.59
2022-07-25T14:31:19.980Z,31.54
2022-07-25T14:33:48.407Z,31.43
2022-07-25T14:36:16.593Z,31.27
2022-07-25T14:38:47.472Z,31.35
2022-07-25T14:41:17.659Z,31.48
2022-07-25T14:43:46.157Z,31.44
2022-07-25T14:46:15.035Z,31.24
2022-07-25T14:48:43.503Z,31.35
2022-07-25T14:51:11.668Z,31.24
2022-07-25T14:53:40.155Z,31.14
2022-07-25T14:56:09.019Z,31.09
2022-07-25T14:58:39.581Z,30.76
2022-07-25T15:01:09.348Z,30.94
2022-07-25T15:03:38.441Z,31.12
2022-07-25T15:06:10.106Z,30.96
2022-07-25T15:08:39.908Z,30.93
2022-07-25T15:11:08.376Z,30.82
2022-07-25T15:13:38.246Z,30.83
2022-07-25T15:16:06.881Z,30.52
2022-07-25T15:18:52.145Z,30.67
2022-07-25T15:21:23.209Z,30.69
2022-07-25T15:23:52.299Z,30.64
2022-07-25T15:26:20.530Z,30.66
2022-07-25T15:28:50.287Z,30.70
2022-07-25T15:31:18.776Z,30.67
2022-07-25T15:33:47.139Z,30.70
2022-07-25T15:36:15.370Z,30.55
2022-07-25T15:38:45.408Z,30.48
2022-07-25T15:41:14.246Z,30.49
2022-07-25T15:43:42.378Z,30.39
2022-07-25T15:46:14.336Z,30.40
2022-07-25T15:48:44.600Z,30.32
2022-07-25T15:51:12.803Z,30.15
2022-07-25T15:53:40.992Z,29.78
2022-07-25T15:56:10.547Z,29.74
2022-07-25T15:58:38.689Z,29.78
2022-07-25T16:01:07.231Z,29.94
2022-07-25T16:03:37.338Z,29.75
2022-07-25T16:06:05.862Z,29.84
2022-07-25T16:08:34.134Z,29.88
2022-07-25T16:11:02.275Z,29.46
2022-07-25T16:13:30.588Z,29.57
2022-07-25T16:15:59.046Z,29.59
2022-07-25T16:18:27.378Z,29.35
2022-07-25T16:20:57.042Z,28.99
2022-07-25T16:23:28.252Z,28.87
2022-07-25T16:25:56.279Z,28.90
2022-07-25T16:28:24.320Z,28.90
2022-07-25T16:30:52.734Z,28.93
2022-07-25T16:33:20.940Z,28.98
2022-07-25T16:35:49.291Z,28.84
2022-07-25T16:38:18.791Z,28.82
2022-07-25T16:40:46.905Z,28.68
2022-07-25T16:43:15.220Z,28.64
2022-07-25T16:45:43.770Z,28.52
2022-07-25T16:48:11.846Z,28.59
2022-07-25T16:50:39.941Z,28.49
2022-07-25T16:53:09.740Z,28.46
2022-07-25T16:55:40.019Z,28.49
2022-07-25T16:58:08.152Z,28.45
2022-07-25T17:00:36.386Z,28.60
2022-07-25T17:03:04.527Z,28.79
2022-07-25T17:05:32.661Z,28.85
2022-07-25T17:08:00.825Z,28.89
2022-07-25T17:10:30.020Z,28.91
2022-07-25T17:12:59.851Z,28.93
2022-07-25T17:15:28.266Z,28.91
2022-07-25T17:17:56.428Z,28.90
2022-07-25T17:20:24.625Z,28.88
2022-07-25T17:22:53.018Z,28.85
2022-07-25T17:25:21.238Z,28.80
2022-07-25T17:27:49.358Z,28.76
2022-07-25T17:30:19.126Z,28.73
2022-07-25T17:32:47.341Z,28.67
2022-07-25T17:35:15.610Z,28.62
2022-07-25T17:37:44.142Z,28.55
2022-07-25T17:40:12.832Z,28.49
2022-07-25T17:42:45.122Z,28.44
2022-07-25T17:45:14.040Z,28.35
2022-07-25T17:47:45.420Z,28.27
2022-07-25T17:50:14.429Z,28.20
2022-07-25T17:52:42.552Z,28.10
2022-07-25T17:55:12.129Z,28.02
2022-07-25T17:57:42.661Z,27.92
2022-07-25T18:00:11.987Z,27.83
2022-07-25T18:02:40.537Z,27.76
2022-07-25T18:05:11.427Z,27.58
2022-07-25T18:07:45.324Z,27.47
2022-07-25T18:10:13.950Z,27.30
2022-07-25T18:12:42.204Z,27.21
2022-07-25T18:15:12.289Z,27.18
2022-07-25T18:17:42.228Z,27.07
2022-07-25T18:20:13.581Z,26.94
2022-07-25T18:22:42.308Z,26.87
2022-07-25T18:25:13.078Z,26.85
2022-07-25T18:27:42.044Z,26.80
2022-07-25T18:30:11.031Z,26.77
2022-07-25T18:32:40.307Z,26.71
2022-07-25T18:35:11.054Z,26.57
2022-07-25T18:37:40.592Z,26.47
2022-07-25T18:40:09.798Z,26.38
2022-07-25T18:42:38.509Z,26.17
2022-07-25T18:45:07.859Z,25.93
2022-07-25T18:47:36.165Z,25.92
2022-07-25T18:50:05.830Z,25.91
2022-07-25T18:52:36.325Z,25.93
2022-07-25T18:55:08.498Z,25.93
2022-07-25T18:57:36.794Z,25.87
2022-07-25T19:00:06.170Z,25.58
2022-07-25T19:02:34.642Z,25.22
2022-07-25T19:05:02.909Z,25.04
2022-07-25T19:07:31.397Z,24.92
2022-07-25T19:09:59.543Z,24.83
2022-07-25T19:12:29.357Z,24.84
2022-07-25T19:14:57.479Z,24.87
2022-07-25T19:17:25.535Z,24.79
2022-07-25T19:19:53.958Z,24.69
2022-07-25T19:22:22.314Z,24.80
2022-07-25T19:24:50.397Z,24.87
2022-07-25T19:27:19.447Z,24.92
2022-07-25T19:29:49.273Z,24.96
2022-07-25T19:32:18.121Z,24.80
2022-07-25T19:34:46.442Z,24.71
2022-07-25T19:37:14.691Z,24.44
2022-07-25T19:39:42.778Z,24.39
2022-07-25T19:42:12.529Z,24.31
2022-07-25T19:44:41.259Z,24.23
2022-07-25T19:47:11.979Z,24.27
2022-07-25T19:49:41.079Z,24.35
2022-07-25T19:52:10.134Z,24.43
2022-07-25T19:54:38.825Z,24.30
2022-07-25T19:57:07.574Z,24.33
2022-07-25T19:59:35.765Z,24.19
2022-07-25T20:02:04.805Z,24.06
2022-07-25T20:04:34.290Z,24.09
2022-07-25T20:07:03.480Z,24.00
2022-07-25T20:09:31.727Z,24.06
2022-07-25T20:12:00.050Z,24.07
2022-07-25T20:14:28.121Z,23.99
2022-07-25T20:16:57.771Z,23.87
2022-07-25T20:19:26.109Z,23.79
2022-07-25T20:21:55.731Z,23.66
2022-07-25T20:24:23.782Z,23.69
2022-07-25T20:26:51.941Z,23.76
2022-07-25T20:29:20.262Z,23.70
2022-07-25T20:31:48.810Z,23.71
2022-07-25T20:34:19.509Z,23.63
2022-07-25T20:36:47.863Z,23.82
2022-07-25T20:39:17.454Z,23.88
2022-07-25T20:41:46.238Z,23.85
2022-07-25T20:44:14.310Z,23.89
2022-07-25T20:46:42.578Z,23.82
2022-07-25T20:49:12.685Z,23.78
2022-07-25T20:51:42.209Z,23.67
2022-07-25T20:54:10.849Z,23.65
2022-07-25T20:56:40.524Z,23.65
2022-07-25T20:59:09.131Z,23.78
2022-07-25T21:01:38.832Z,23.86
2022-07-25T21:04:07.872Z,23.87
2022-07-25T21:06:37.045Z,23.91
2022-07-25T21:09:06.150Z,23.95
2022-07-25T21:11:36.575Z,23.95
2022-07-25T21:14:06.775Z,23.91
2022-07-25T21:16:35.191Z,23.82
2022-07-25T21:19:03.376Z,23.94
2022-07-25T21:21:32.007Z,23.93
2022-07-25T21:24:00.189Z,23.98
2022-07-25T21:26:29.564Z,24.00
2022-07-25T21:28:57.578Z,23.96
2022-07-25T21:31:27.040Z,23.98
2022-07-25T21:33:55.245Z,23.94
2022-07-25T21:36:23.540Z,23.91
2022-07-25T21:38:51.634Z,23.85
2022-07-25T21:41:19.942Z,23.87
2022-07-25T21:43:48.490Z,23.81
2022-07-25T21:46:16.710Z,23.80
2022-07-25T21:49:00.167Z,23.81
2022-07-25T21:51:40.305Z,23.77
2022-07-25T21:54:09.526Z,23.77
2022-07-25T21:56:38.050Z,23.64
2022-07-25T21:59:07.136Z,23.70
2022-07-25T22:01:35.806Z,23.65
2022-07-25T22:04:06.671Z,23.68
2022-07-25T22:06:34.941Z,23.61
2022-07-25T22:09:03.386Z,23.63
2022-07-25T22:11:38.642Z,23.61
2022-07-25T22:14:14.285Z,23.57
2022-07-25T22:16:42.883Z,23.55
2022-07-25T22:19:12.616Z,23.52
2022-07-25T22:21:41.565Z,23.55
2022-07-25T22:24:10.801Z,23.57
2022-07-25T22:26:38.963Z,23.52
2022-07-25T22:29:07.574Z,23.45
2022-07-25T22:31:36.046Z,23.42
2022-07-25T22:34:04.634Z,23.42
2022-07-25T22:36:34.346Z,23.35
2022-07-25T22:39:02.457Z,23.33
2022-07-25T22:41:30.630Z,23.36
2022-07-25T22:44:00.021Z,23.40
2022-07-25T22:46:29.066Z,23.38
2022-07-25T22:48:59.159Z,23.33
2022-07-25T22:51:27.944Z,23.33
2022-07-25T22:53:57.876Z,23.36
2022-07-25T22:56:26.666Z,23.32
2022-07-25T22:58:55.370Z,23.26
2022-07-25T23:01:24.222Z,23.19
2022-07-25T23:03:52.776Z,23.16
2022-07-25T23:06:22.241Z,23.14
2022-07-25T23:08:51.129Z,23.20
2022-07-25T23:11:20.953Z,23.23
2022-07-25T23:13:49.095Z,23.13
2022-07-25T23:16:17.590Z,23.16
2022-07-25T23:18:45.856Z,23.10
2022-07-25T23:21:14.354Z,23.06
2022-07-25T23:23:42.766Z,22.97
2022-07-25T23:26:11.040Z,22.98
2022-07-25T23:28:40.639Z,22.93
2022-07-25T23:31:09.169Z,22.90
2022-07-25T23:33:37.491Z,22.96
2022-07-25T23:36:06.364Z,22.98
2022-07-25T23:38:34.767Z,22.96
2022-07-25T23:41:02.886Z,22.93
2022-07-25T23:43:54.386Z,22.91
2022-07-25T23:46:21.561Z,22.88
2022-07-25T23:48:58.198Z,22.91
2022-07-25T23:51:26.677Z,22.90
2022-07-25T23:53:55.177Z,22.91
2022-07-25T23:56:23.502Z,22.88
2022-07-25T23:58:52.621Z,22.89
